sensor_id;sensor_type;location;lat;lon;timestamp;pressure;altitude;pressure_sealevel;temperature;humidity
46291;BME280;32023;44.444;26.006;2023-02-01T00:01:10;100431.13;;;0.96;75.12
46291;BME280;32023;44.444;26.006;2023-02-01T00:03:36;100430.09;;;0.98;74.86
46291;BME280;32023;44.444;26.006;2023-02-01T00:06:03;100439.88;;;0.98;74.98
46291;BME280;32023;44.444;26.006;2023-02-01T00:08:30;100434.72;;;1.04;74.95
46291;BME280;32023;44.444;26.006;2023-02-01T00:11:14;100438.09;;;1.06;75.07
46291;BME280;32023;44.444;26.006;2023-02-01T00:13:44;100438.09;;;1.06;74.90
46291;BME280;32023;44.444;26.006;2023-02-01T00:16:16;100437.69;;;1.09;75.17
46291;BME280;32023;44.444;26.006;2023-02-01T00:18:43;100450.66;;;1.13;74.86
46291;BME280;32023;44.444;26.006;2023-02-01T00:21:18;100456.13;;;1.20;74.92
46291;BME280;32023;44.444;26.006;2023-02-01T00:23:45;100440.31;;;1.23;74.77
46291;BME280;32023;44.444;26.006;2023-02-01T00:26:22;100446.56;;;1.24;74.71
46291;BME280;32023;44.444;26.006;2023-02-01T00:28:51;100440.94;;;1.25;74.90
46291;BME280;32023;44.444;26.006;2023-02-01T00:31:17;100437.44;;;1.31;74.79
46291;BME280;32023;44.444;26.006;2023-02-01T00:33:47;100443.31;;;1.35;74.77
46291;BME280;32023;44.444;26.006;2023-02-01T00:36:14;100440.38;;;1.36;74.65
46291;BME280;32023;44.444;26.006;2023-02-01T00:38:45;100436.00;;;1.35;74.50
46291;BME280;32023;44.444;26.006;2023-02-01T00:41:18;100427.03;;;1.35;74.88
46291;BME280;32023;44.444;26.006;2023-02-01T00:43:45;100436.38;;;1.32;74.91
46291;BME280;32023;44.444;26.006;2023-02-01T00:46:12;100434.16;;;1.36;74.90
46291;BME280;32023;44.444;26.006;2023-02-01T00:48:40;100437.88;;;1.35;74.71
46291;BME280;32023;44.444;26.006;2023-02-01T00:51:09;100441.63;;;1.34;74.51
46291;BME280;32023;44.444;26.006;2023-02-01T00:53:36;100427.44;;;1.32;75.00
46291;BME280;32023;44.444;26.006;2023-02-01T00:56:02;100428.66;;;1.29;74.68
46291;BME280;32023;44.444;26.006;2023-02-01T00:58:29;100424.47;;;1.27;74.65
46291;BME280;32023;44.444;26.006;2023-02-01T01:03:40;100421.47;;;1.15;74.58
46291;BME280;32023;44.444;26.006;2023-02-01T01:06:12;100417.66;;;1.10;74.79
46291;BME280;32023;44.444;26.006;2023-02-01T01:08:54;100420.53;;;1.02;74.61
46291;BME280;32023;44.444;26.006;2023-02-01T01:11:33;100423.78;;;0.90;74.97
46291;BME280;32023;44.444;26.006;2023-02-01T01:14:02;100431.38;;;0.80;75.70
46291;BME280;32023;44.444;26.006;2023-02-01T01:16:29;100431.91;;;0.69;75.86
46291;BME280;32023;44.444;26.006;2023-02-01T01:19:02;100419.34;;;0.62;76.13
46291;BME280;32023;44.444;26.006;2023-02-01T01:21:29;100424.69;;;0.55;76.53
46291;BME280;32023;44.444;26.006;2023-02-01T01:23:57;100432.16;;;0.53;76.46
46291;BME280;32023;44.444;26.006;2023-02-01T01:26:26;100419.69;;;0.52;76.66
46291;BME280;32023;44.444;26.006;2023-02-01T01:28:54;100416.97;;;0.52;76.60
46291;BME280;32023;44.444;26.006;2023-02-01T01:31:21;100409.69;;;0.53;76.52
46291;BME280;32023;44.444;26.006;2023-02-01T01:33:50;100410.88;;;0.50;76.49
46291;BME280;32023;44.444;26.006;2023-02-01T01:36:21;100414.66;;;0.49;76.62
46291;BME280;32023;44.444;26.006;2023-02-01T01:38:48;100418.38;;;0.48;76.63
46291;BME280;32023;44.444;26.006;2023-02-01T01:41:18;100406.25;;;0.44;76.61
46291;BME280;32023;44.444;26.006;2023-02-01T01:43:54;100414.13;;;0.39;76.36
46291;BME280;32023;44.444;26.006;2023-02-01T01:46:25;100414.91;;;0.33;76.85
46291;BME280;32023;44.444;26.006;2023-02-01T01:49:16;100408.19;;;0.29;76.84
46291;BME280;32023;44.444;26.006;2023-02-01T01:51:57;100419.47;;;0.32;76.92
46291;BME280;32023;44.444;26.006;2023-02-01T01:54:37;100425.50;;;0.34;77.11
46291;BME280;32023;44.444;26.006;2023-02-01T01:57:11;100421.22;;;0.40;77.17
46291;BME280;32023;44.444;26.006;2023-02-01T01:59:41;100411.00;;;0.42;77.15
46291;BME280;32023;44.444;26.006;2023-02-01T02:02:09;100418.78;;;0.45;77.10
46291;BME280;32023;44.444;26.006;2023-02-01T02:04:42;100414.66;;;0.49;76.97
46291;BME280;32023;44.444;26.006;2023-02-01T02:07:13;100418.56;;;0.46;76.87
46291;BME280;32023;44.444;26.006;2023-02-01T02:09:42;100423.66;;;0.35;77.08
46291;BME280;32023;44.444;26.006;2023-02-01T02:12:09;100421.94;;;0.13;77.99
46291;BME280;32023;44.444;26.006;2023-02-01T02:14:41;100420.63;;;-0.13;78.92
46291;BME280;32023;44.444;26.006;2023-02-01T02:31:57;100423.47;;;-0.65;81.16
46291;BME280;32023;44.444;26.006;2023-02-01T02:37:48;100420.63;;;-0.71;81.37
46291;BME280;32023;44.444;26.006;2023-02-01T02:42:56;100430.13;;;-0.90;81.66
46291;BME280;32023;44.444;26.006;2023-02-01T02:45:55;100409.19;;;-0.88;81.54
46291;BME280;32023;44.444;26.006;2023-02-01T02:49:04;100411.50;;;-0.85;81.67
46291;BME280;32023;44.444;26.006;2023-02-01T02:55:03;100428.28;;;-0.89;81.35
46291;BME280;32023;44.444;26.006;2023-02-01T02:57:39;100431.03;;;-0.98;81.31
46291;BME280;32023;44.444;26.006;2023-02-01T03:00:30;100444.63;;;-1.06;81.46
46291;BME280;32023;44.444;26.006;2023-02-01T03:03:16;100434.56;;;-1.12;81.78
46291;BME280;32023;44.444;26.006;2023-02-01T03:06:01;100434.84;;;-1.21;81.89
46291;BME280;32023;44.444;26.006;2023-02-01T03:08:29;100432.00;;;-1.28;81.78
46291;BME280;32023;44.444;26.006;2023-02-01T03:13:52;100426.31;;;-1.33;81.78
46291;BME280;32023;44.444;26.006;2023-02-01T03:16:36;100425.38;;;-1.40;81.72
46291;BME280;32023;44.444;26.006;2023-02-01T03:19:21;100426.94;;;-1.46;82.04
46291;BME280;32023;44.444;26.006;2023-02-01T03:21:55;100428.84;;;-1.54;82.15
46291;BME280;32023;44.444;26.006;2023-02-01T03:24:36;100432.69;;;-1.49;82.23
46291;BME280;32023;44.444;26.006;2023-02-01T03:27:32;100453.44;;;-1.49;82.37
46291;BME280;32023;44.444;26.006;2023-02-01T03:32:45;100428.50;;;-1.51;82.14
46291;BME280;32023;44.444;26.006;2023-02-01T03:35:44;100428.41;;;-1.43;82.43
46291;BME280;32023;44.444;26.006;2023-02-01T03:38:28;100424.47;;;-1.32;82.44
46291;BME280;32023;44.444;26.006;2023-02-01T03:41:21;100418.81;;;-1.23;82.15
46291;BME280;32023;44.444;26.006;2023-02-01T03:46:32;100416.97;;;-1.08;81.38
46291;BME280;32023;44.444;26.006;2023-02-01T03:49:07;100416.44;;;-1.03;81.26
46291;BME280;32023;44.444;26.006;2023-02-01T03:51:37;100415.22;;;-1.01;81.29
46291;BME280;32023;44.444;26.006;2023-02-01T03:54:07;100417.53;;;-0.98;81.00
46291;BME280;32023;44.444;26.006;2023-02-01T03:56:37;100419.06;;;-0.95;80.66
46291;BME280;32023;44.444;26.006;2023-02-01T03:59:10;100405.81;;;-0.90;80.71
46291;BME280;32023;44.444;26.006;2023-02-01T04:01:36;100408.81;;;-0.85;80.43
46291;BME280;32023;44.444;26.006;2023-02-01T04:04:03;100405.72;;;-0.82;80.11
46291;BME280;32023;44.444;26.006;2023-02-01T04:06:34;100407.25;;;-0.79;80.06
46291;BME280;32023;44.444;26.006;2023-02-01T04:09:01;100407.59;;;-0.82;79.53
46291;BME280;32023;44.444;26.006;2023-02-01T04:11:28;100406.09;;;-0.85;79.15
46291;BME280;32023;44.444;26.006;2023-02-01T04:13:55;100407.97;;;-0.85;78.97
46291;BME280;32023;44.444;26.006;2023-02-01T04:16:21;100425.09;;;-0.93;78.64
46291;BME280;32023;44.444;26.006;2023-02-01T04:18:49;100408.03;;;-0.93;78.40
46291;BME280;32023;44.444;26.006;2023-02-01T04:21:15;100412.44;;;-0.92;78.23
46291;BME280;32023;44.444;26.006;2023-02-01T04:23:42;100415.97;;;-0.92;78.29
46291;BME280;32023;44.444;26.006;2023-02-01T04:26:08;100426.59;;;-0.90;77.93
46291;BME280;32023;44.444;26.006;2023-02-01T04:28:34;100417.84;;;-0.92;77.42
46291;BME280;32023;44.444;26.006;2023-02-01T04:31:04;100428.66;;;-0.92;77.05
46291;BME280;32023;44.444;26.006;2023-02-01T04:33:36;100426.31;;;-0.95;76.99
46291;BME280;32023;44.444;26.006;2023-02-01T04:36:07;100426.16;;;-1.17;76.91
46291;BME280;32023;44.444;26.006;2023-02-01T04:38:34;100429.22;;;-1.20;76.92
46291;BME280;32023;44.444;26.006;2023-02-01T04:41:00;100424.84;;;-1.21;77.34
46291;BME280;32023;44.444;26.006;2023-02-01T04:43:30;100422.25;;;-1.29;77.22
46291;BME280;32023;44.444;26.006;2023-02-01T04:45:56;100430.41;;;-1.37;77.16
46291;BME280;32023;44.444;26.006;2023-02-01T04:48:49;100426.31;;;-1.33;77.42
46291;BME280;32023;44.444;26.006;2023-02-01T04:51:15;100413.84;;;-1.34;77.28
46291;BME280;32023;44.444;26.006;2023-02-01T04:53:41;100430.88;;;-1.33;76.93
46291;BME280;32023;44.444;26.006;2023-02-01T04:56:08;100428.34;;;-1.35;76.89
46291;BME280;32023;44.444;26.006;2023-02-01T04:58:34;100424.63;;;-1.34;76.32
46291;BME280;32023;44.444;26.006;2023-02-01T05:01:03;100433.38;;;-1.32;76.07
46291;BME280;32023;44.444;26.006;2023-02-01T05:03:31;100425.09;;;-1.30;75.86
46291;BME280;32023;44.444;26.006;2023-02-01T05:05:58;100436.38;;;-1.27;75.90
46291;BME280;32023;44.444;26.006;2023-02-01T05:08:25;100428.28;;;-1.27;75.81
46291;BME280;32023;44.444;26.006;2023-02-01T05:10:53;100429.13;;;-1.26;75.39
46291;BME280;32023;44.444;26.006;2023-02-01T05:15:55;100429.13;;;-1.26;75.40
46291;BME280;32023;44.444;26.006;2023-02-01T05:18:32;100430.63;;;-1.24;75.15
46291;BME280;32023;44.444;26.006;2023-02-01T05:20:58;100430.06;;;-1.19;74.81
46291;BME280;32023;44.444;26.006;2023-02-01T05:23:31;100424.97;;;-1.14;74.63
46291;BME280;32023;44.444;26.006;2023-02-01T05:26:36;100423.75;;;-1.12;74.48
46291;BME280;32023;44.444;26.006;2023-02-01T05:29:06;100423.75;;;-1.12;74.14
46291;BME280;32023;44.444;26.006;2023-02-01T05:31:36;100413.97;;;-1.13;73.95
46291;BME280;32023;44.444;26.006;2023-02-01T05:34:03;100412.56;;;-1.09;73.80
46291;BME280;32023;44.444;26.006;2023-02-01T05:36:35;100420.16;;;-1.04;73.53
46291;BME280;32023;44.444;26.006;2023-02-01T05:42:51;100409.34;;;-0.89;72.99
46291;BME280;32023;44.444;26.006;2023-02-01T05:46:01;100409.19;;;-0.88;72.44
46291;BME280;32023;44.444;26.006;2023-02-01T05:48:32;100412.16;;;-0.83;72.51
46291;BME280;32023;44.444;26.006;2023-02-01T05:51:03;100407.88;;;-0.77;72.53
46291;BME280;32023;44.444;26.006;2023-02-01T05:53:32;100413.00;;;-0.68;72.71
46291;BME280;32023;44.444;26.006;2023-02-01T05:56:20;100407.41;;;-0.66;71.82
46291;BME280;32023;44.444;26.006;2023-02-01T05:58:55;100405.09;;;-0.69;71.65
46291;BME280;32023;44.444;26.006;2023-02-01T06:01:26;100414.59;;;-0.73;72.31
46291;BME280;32023;44.444;26.006;2023-02-01T06:04:01;100412.25;;;-0.76;72.79
46291;BME280;32023;44.444;26.006;2023-02-01T06:06:28;100413.84;;;-0.67;72.45
46291;BME280;32023;44.444;26.006;2023-02-01T06:08:57;100421.13;;;-0.53;72.12
46291;BME280;32023;44.444;26.006;2023-02-01T06:11:29;100409.47;;;-0.39;71.75
46291;BME280;32023;44.444;26.006;2023-02-01T06:13:59;100415.31;;;-0.21;70.71
46291;BME280;32023;44.444;26.006;2023-02-01T06:16:37;100412.78;;;-0.08;69.89
46291;BME280;32023;44.444;26.006;2023-02-01T06:19:21;100423.69;;;-0.01;69.18
46291;BME280;32023;44.444;26.006;2023-02-01T06:22:02;100424.13;;;0.03;69.69
46291;BME280;32023;44.444;26.006;2023-02-01T06:24:35;100421.22;;;0.04;69.50
46291;BME280;32023;44.444;26.006;2023-02-01T06:27:21;100428.03;;;0.15;69.90
46291;BME280;32023;44.444;26.006;2023-02-01T06:29:57;100422.22;;;0.18;69.64
46291;BME280;32023;44.444;26.006;2023-02-01T06:32:26;100427.88;;;0.37;69.59
46291;BME280;32023;44.444;26.006;2023-02-01T06:37:52;100436.19;;;0.78;68.42
46291;BME280;32023;44.444;26.006;2023-02-01T06:40:23;100440.31;;;1.02;68.35
46291;BME280;32023;44.444;26.006;2023-02-01T06:42:51;100437.91;;;1.14;67.33
46291;BME280;32023;44.444;26.006;2023-02-01T06:45:21;100448.47;;;1.30;67.43
46291;BME280;32023;44.444;26.006;2023-02-01T06:47:48;100444.19;;;1.42;66.82
46291;BME280;32023;44.444;26.006;2023-02-01T06:50:14;100440.50;;;1.56;66.62
46291;BME280;32023;44.444;26.006;2023-02-01T06:52:47;100434.38;;;1.75;65.46
46291;BME280;32023;44.444;26.006;2023-02-01T06:55:16;100432.34;;;1.90;64.57
46291;BME280;32023;44.444;26.006;2023-02-01T06:57:45;100428.47;;;2.19;63.81
46291;BME280;32023;44.444;26.006;2023-02-01T07:00:12;100421.88;;;2.48;62.60
46291;BME280;32023;44.444;26.006;2023-02-01T07:02:39;100420.25;;;2.73;62.04
46291;BME280;32023;44.444;26.006;2023-02-01T07:05:21;100435.94;;;2.78;61.52
46291;BME280;32023;44.444;26.006;2023-02-01T07:07:47;100415.66;;;2.80;60.89
46291;BME280;32023;44.444;26.006;2023-02-01T07:10:14;100427.16;;;2.82;61.09
46291;BME280;32023;44.444;26.006;2023-02-01T07:12:45;100428.19;;;2.68;61.30
46291;BME280;32023;44.444;26.006;2023-02-01T07:15:23;100431.91;;;2.54;61.75
46291;BME280;32023;44.444;26.006;2023-02-01T07:17:57;100440.50;;;2.45;62.59
46291;BME280;32023;44.444;26.006;2023-02-01T07:20:26;100429.81;;;2.43;62.75
46291;BME280;32023;44.444;26.006;2023-02-01T07:26:11;100422.94;;;2.47;62.56
46291;BME280;32023;44.444;26.006;2023-02-01T07:29:06;100428.13;;;2.42;62.70
46291;BME280;32023;44.444;26.006;2023-02-01T07:31:33;100441.50;;;2.37;62.97
46291;BME280;32023;44.444;26.006;2023-02-01T07:33:59;100434.19;;;2.37;63.04
46291;BME280;32023;44.444;26.006;2023-02-01T07:36:31;100432.28;;;2.31;63.52
46291;BME280;32023;44.444;26.006;2023-02-01T07:39:02;100422.44;;;2.24;64.30
46291;BME280;32023;44.444;26.006;2023-02-01T07:41:29;100429.56;;;2.25;64.48
46291;BME280;32023;44.444;26.006;2023-02-01T07:43:55;100420.16;;;2.27;64.14
46291;BME280;32023;44.444;26.006;2023-02-01T07:46:26;100414.53;;;2.29;64.67
46291;BME280;32023;44.444;26.006;2023-02-01T07:48:56;100415.97;;;2.31;64.07
46291;BME280;32023;44.444;26.006;2023-02-01T07:51:22;100417.50;;;2.54;64.44
46291;BME280;32023;44.444;26.006;2023-02-01T07:53:49;100422.16;;;2.86;63.20
46291;BME280;32023;44.444;26.006;2023-02-01T07:56:19;100412.53;;;3.16;62.48
46291;BME280;32023;44.444;26.006;2023-02-01T07:58:53;100418.56;;;3.38;61.49
46291;BME280;32023;44.444;26.006;2023-02-01T08:01:33;100416.03;;;3.50;60.10
46291;BME280;32023;44.444;26.006;2023-02-01T08:04:03;100415.16;;;3.62;59.78
46291;BME280;32023;44.444;26.006;2023-02-01T08:06:32;100403.31;;;3.95;59.99
46291;BME280;32023;44.444;26.006;2023-02-01T08:09:03;100419.19;;;4.04;58.23
46291;BME280;32023;44.444;26.006;2023-02-01T08:11:30;100414.53;;;4.18;58.16
46291;BME280;32023;44.444;26.006;2023-02-01T08:13:57;100418.91;;;4.25;57.71
46291;BME280;32023;44.444;26.006;2023-02-01T08:16:24;100427.38;;;4.42;57.84
46291;BME280;32023;44.444;26.006;2023-02-01T08:18:51;100428.97;;;4.88;57.73
46291;BME280;32023;44.444;26.006;2023-02-01T08:21:34;100421.34;;;5.46;54.52
46291;BME280;32023;44.444;26.006;2023-02-01T08:24:08;100430.16;;;5.91;53.13
46291;BME280;32023;44.444;26.006;2023-02-01T08:26:37;100424.59;;;5.97;51.67
46291;BME280;32023;44.444;26.006;2023-02-01T08:29:07;100429.38;;;5.83;50.89
46291;BME280;32023;44.444;26.006;2023-02-01T08:31:38;100419.28;;;5.66;51.55
46291;BME280;32023;44.444;26.006;2023-02-01T08:34:07;100419.66;;;5.69;51.16
46291;BME280;32023;44.444;26.006;2023-02-01T08:36:34;100418.28;;;5.78;50.91
46291;BME280;32023;44.444;26.006;2023-02-01T08:39:03;100426.47;;;5.78;51.30
46291;BME280;32023;44.444;26.006;2023-02-01T08:41:38;100418.63;;;5.89;51.42
46291;BME280;32023;44.444;26.006;2023-02-01T08:44:09;100421.03;;;6.15;50.93
46291;BME280;32023;44.444;26.006;2023-02-01T08:46:35;100425.50;;;6.09;50.50
46291;BME280;32023;44.444;26.006;2023-02-01T08:49:10;100440.88;;;5.92;50.91
46291;BME280;32023;44.444;26.006;2023-02-01T08:51:38;100443.13;;;5.52;51.80
46291;BME280;32023;44.444;26.006;2023-02-01T08:54:05;100440.81;;;5.31;52.58
46291;BME280;32023;44.444;26.006;2023-02-01T08:56:31;100441.66;;;5.07;52.74
46291;BME280;32023;44.444;26.006;2023-02-01T08:59:01;100435.25;;;4.95;53.46
46291;BME280;32023;44.444;26.006;2023-02-01T09:01:27;100428.25;;;5.48;53.13
46291;BME280;32023;44.444;26.006;2023-02-01T09:03:54;100430.31;;;5.96;51.02
46291;BME280;32023;44.444;26.006;2023-02-01T09:06:20;100432.59;;;6.47;50.54
46291;BME280;32023;44.444;26.006;2023-02-01T09:08:50;100430.97;;;6.99;48.20
46291;BME280;32023;44.444;26.006;2023-02-01T09:11:28;100426.03;;;7.42;46.73
46291;BME280;32023;44.444;26.006;2023-02-01T09:14:05;100425.06;;;7.71;45.98
46291;BME280;32023;44.444;26.006;2023-02-01T09:16:35;100418.69;;;8.29;45.26
46291;BME280;32023;44.444;26.006;2023-02-01T09:19:03;100411.16;;;8.81;43.15
46291;BME280;32023;44.444;26.006;2023-02-01T09:21:30;100407.84;;;8.96;42.76
46291;BME280;32023;44.444;26.006;2023-02-01T09:24:02;100400.91;;;9.77;42.24
46291;BME280;32023;44.444;26.006;2023-02-01T09:26:33;100396.88;;;10.23;40.31
46291;BME280;32023;44.444;26.006;2023-02-01T09:29:02;100401.47;;;10.66;39.83
46291;BME280;32023;44.444;26.006;2023-02-01T09:31:32;100399.50;;;10.88;37.97
46291;BME280;32023;44.444;26.006;2023-02-01T09:34:02;100396.78;;;10.66;37.95
46291;BME280;32023;44.444;26.006;2023-02-01T09:36:33;100392.19;;;10.72;38.12
46291;BME280;32023;44.444;26.006;2023-02-01T09:39:05;100392.19;;;11.03;37.21
46291;BME280;32023;44.444;26.006;2023-02-01T09:42:05;100386.50;;;11.10;36.17
46291;BME280;32023;44.444;26.006;2023-02-01T09:44:57;100378.91;;;10.95;36.92
46291;BME280;32023;44.444;26.006;2023-02-01T09:47:49;100371.00;;;11.04;36.36
46291;BME280;32023;44.444;26.006;2023-02-01T09:50:22;100376.22;;;11.37;36.44
46291;BME280;32023;44.444;26.006;2023-02-01T09:53:12;100365.44;;;11.73;35.84
46291;BME280;32023;44.444;26.006;2023-02-01T09:55:49;100357.41;;;12.28;34.63
46291;BME280;32023;44.444;26.006;2023-02-01T09:58:42;100353.59;;;12.34;34.10
46291;BME280;32023;44.444;26.006;2023-02-01T10:01:21;100355.72;;;12.12;33.86
46291;BME280;32023;44.444;26.006;2023-02-01T10:04:14;100344.81;;;12.73;33.29
46291;BME280;32023;44.444;26.006;2023-02-01T10:24:03;100318.66;;;20.55;22.93
46291;BME280;32023;44.444;26.006;2023-02-01T10:26:37;100319.47;;;21.42;20.99
46291;BME280;32023;44.444;26.006;2023-02-01T10:29:19;100313.47;;;21.69;20.81
46291;BME280;32023;44.444;26.006;2023-02-01T10:31:46;100317.38;;;21.13;21.55
46291;BME280;32023;44.444;26.006;2023-02-01T10:34:30;100319.88;;;20.15;21.51
46291;BME280;32023;44.444;26.006;2023-02-01T10:37:28;100317.16;;;20.41;22.42
46291;BME280;32023;44.444;26.006;2023-02-01T10:40:10;100310.53;;;22.03;20.50
46291;BME280;32023;44.444;26.006;2023-02-01T10:42:41;100309.91;;;23.19;19.94
46291;BME280;32023;44.444;26.006;2023-02-01T10:45:22;100300.28;;;23.97;18.88
46291;BME280;32023;44.444;26.006;2023-02-01T10:47:51;100296.84;;;24.53;18.26
46291;BME280;32023;44.444;26.006;2023-02-01T10:53:31;100293.16;;;20.91;20.83
46291;BME280;32023;44.444;26.006;2023-02-01T10:56:07;100298.50;;;18.10;23.79
46291;BME280;32023;44.444;26.006;2023-02-01T10:58:34;100298.31;;;17.79;25.07
46291;BME280;32023;44.444;26.006;2023-02-01T11:01:07;100287.75;;;20.04;22.96
46291;BME280;32023;44.444;26.006;2023-02-01T11:03:55;100276.78;;;21.91;20.66
46291;BME280;32023;44.444;26.006;2023-02-01T11:08:58;100277.41;;;22.05;20.88
46291;BME280;32023;44.444;26.006;2023-02-01T11:11:52;100265.25;;;22.43;20.92
46291;BME280;32023;44.444;26.006;2023-02-01T11:14:20;100260.25;;;20.88;21.86
46291;BME280;32023;44.444;26.006;2023-02-01T11:19:22;100258.00;;;22.42;20.97
46291;BME280;32023;44.444;26.006;2023-02-01T11:21:53;100257.28;;;20.67;22.08
46291;BME280;32023;44.444;26.006;2023-02-01T11:26:57;100260.06;;;20.67;22.90
46291;BME280;32023;44.444;26.006;2023-02-01T11:29:36;100255.72;;;22.97;21.02
46291;BME280;32023;44.444;26.006;2023-02-01T11:32:04;100261.22;;;23.27;20.54
46291;BME280;32023;44.444;26.006;2023-02-01T11:37:42;100256.25;;;21.15;22.62
46291;BME280;32023;44.444;26.006;2023-02-01T11:42:59;100239.06;;;22.80;21.09
46291;BME280;32023;44.444;26.006;2023-02-01T11:47:53;100242.03;;;23.29;20.52
46291;BME280;32023;44.444;26.006;2023-02-01T11:50:52;100241.91;;;23.82;19.68
46291;BME280;32023;44.444;26.006;2023-02-01T12:05:24;100241.16;;;21.45;22.34
46291;BME280;32023;44.444;26.006;2023-02-01T12:08:01;100229.63;;;21.93;22.26
46291;BME280;32023;44.444;26.006;2023-02-01T12:19:29;100225.25;;;21.29;23.01
46291;BME280;32023;44.444;26.006;2023-02-01T12:25:14;100229.06;;;20.04;24.37
46291;BME280;32023;44.444;26.006;2023-02-01T12:30:58;100212.69;;;19.71;25.19
46291;BME280;32023;44.444;26.006;2023-02-01T12:49:58;100210.66;;;16.58;30.14
46291;BME280;32023;44.444;26.006;2023-02-01T12:52:48;100216.09;;;16.63;30.10
46291;BME280;32023;44.444;26.006;2023-02-01T12:55:45;100217.22;;;15.87;31.38
46291;BME280;32023;44.444;26.006;2023-02-01T12:58:31;100218.59;;;16.46;30.86
46291;BME280;32023;44.444;26.006;2023-02-01T13:04:42;100218.56;;;17.70;29.26
46291;BME280;32023;44.444;26.006;2023-02-01T13:07:23;100212.38;;;17.73;28.81
46291;BME280;32023;44.444;26.006;2023-02-01T13:10:01;100212.47;;;17.68;29.03
46291;BME280;32023;44.444;26.006;2023-02-01T13:13:04;100219.06;;;17.72;28.90
46291;BME280;32023;44.444;26.006;2023-02-01T13:18:22;100225.53;;;17.26;29.57
46291;BME280;32023;44.444;26.006;2023-02-01T13:21:20;100226.31;;;16.49;30.53
46291;BME280;32023;44.444;26.006;2023-02-01T13:23:51;100237.72;;;16.10;30.83
46291;BME280;32023;44.444;26.006;2023-02-01T13:26:28;100232.34;;;15.28;32.23
46291;BME280;32023;44.444;26.006;2023-02-01T13:29:01;100229.78;;;15.08;32.63
46291;BME280;32023;44.444;26.006;2023-02-01T13:31:57;100227.78;;;14.85;33.30
46291;BME280;32023;44.444;26.006;2023-02-01T13:40:10;100227.13;;;14.98;32.77
46291;BME280;32023;44.444;26.006;2023-02-01T13:45:34;100230.50;;;14.17;34.45
46291;BME280;32023;44.444;26.006;2023-02-01T13:48:05;100224.63;;;13.75;35.17
46291;BME280;32023;44.444;26.006;2023-02-01T13:50:37;100222.31;;;13.43;35.85
46291;BME280;32023;44.444;26.006;2023-02-01T14:00:40;100221.94;;;11.68;39.86
46291;BME280;32023;44.444;26.006;2023-02-01T14:03:20;100228.66;;;11.82;39.50
46291;BME280;32023;44.444;26.006;2023-02-01T14:05:54;100216.78;;;11.76;39.78
46291;BME280;32023;44.444;26.006;2023-02-01T14:08:36;100212.69;;;11.89;39.62
46291;BME280;32023;44.444;26.006;2023-02-01T14:11:03;100213.72;;;11.73;39.86
46291;BME280;32023;44.444;26.006;2023-02-01T14:26:44;100215.13;;;11.23;40.98
46291;BME280;32023;44.444;26.006;2023-02-01T14:32:06;100221.66;;;11.02;41.71
46291;BME280;32023;44.444;26.006;2023-02-01T14:34:49;100221.31;;;10.93;41.85
46291;BME280;32023;44.444;26.006;2023-02-01T14:39:58;100228.00;;;11.02;42.13
46291;BME280;32023;44.444;26.006;2023-02-01T14:50:36;100231.97;;;10.85;42.90
46291;BME280;32023;44.444;26.006;2023-02-01T15:01:03;100244.69;;;10.22;43.49
46291;BME280;32023;44.444;26.006;2023-02-01T15:04:12;100234.06;;;9.60;45.62
46291;BME280;32023;44.444;26.006;2023-02-01T15:06:53;100229.66;;;9.16;46.70
46291;BME280;32023;44.444;26.006;2023-02-01T15:09:27;100225.63;;;8.85;47.68
46291;BME280;32023;44.444;26.006;2023-02-01T15:12:18;100231.31;;;8.45;49.11
46291;BME280;32023;44.444;26.006;2023-02-01T15:17:38;100224.28;;;8.04;50.50
46291;BME280;32023;44.444;26.006;2023-02-01T15:20:15;100231.47;;;7.65;51.94
46291;BME280;32023;44.444;26.006;2023-02-01T15:22:42;100236.69;;;7.27;53.20
46291;BME280;32023;44.444;26.006;2023-02-01T15:25:27;100238.41;;;7.05;54.29
46291;BME280;32023;44.444;26.006;2023-02-01T15:27:54;100237.44;;;6.76;55.42
46291;BME280;32023;44.444;26.006;2023-02-01T15:30:27;100239.38;;;6.64;55.51
46291;BME280;32023;44.444;26.006;2023-02-01T15:33:06;100235.78;;;6.40;56.86
46291;BME280;32023;44.444;26.006;2023-02-01T15:35:44;100241.91;;;6.24;57.32
46291;BME280;32023;44.444;26.006;2023-02-01T15:43:36;100244.81;;;5.69;59.90
46291;BME280;32023;44.444;26.006;2023-02-01T15:46:08;100250.22;;;5.58;60.43
46291;BME280;32023;44.444;26.006;2023-02-01T15:48:43;100246.38;;;5.47;60.98
46291;BME280;32023;44.444;26.006;2023-02-01T15:51:20;100249.25;;;5.34;61.50
46291;BME280;32023;44.444;26.006;2023-02-01T15:53:52;100259.63;;;5.25;61.62
46291;BME280;32023;44.444;26.006;2023-02-01T15:56:40;100258.28;;;5.16;62.14
46291;BME280;32023;44.444;26.006;2023-02-01T15:59:16;100260.47;;;5.08;62.76
46291;BME280;32023;44.444;26.006;2023-02-01T16:01:43;100258.03;;;5.00;62.78
46291;BME280;32023;44.444;26.006;2023-02-01T16:04:45;100259.41;;;4.91;63.34
46291;BME280;32023;44.444;26.006;2023-02-01T16:07:03;100260.75;;;4.81;64.01
46291;BME280;32023;44.444;26.006;2023-02-01T16:09:55;100254.97;;;4.71;64.60
46291;BME280;32023;44.444;26.006;2023-02-01T16:15:07;100260.94;;;4.62;65.51
46291;BME280;32023;44.444;26.006;2023-02-01T16:17:37;100265.41;;;4.56;65.45
46291;BME280;32023;44.444;26.006;2023-02-01T16:20:04;100264.38;;;4.51;66.04
46291;BME280;32023;44.444;26.006;2023-02-01T16:22:33;100261.47;;;4.46;65.82
46291;BME280;32023;44.444;26.006;2023-02-01T16:25:00;100257.31;;;4.43;66.00
46291;BME280;32023;44.444;26.006;2023-02-01T16:27:27;100269.72;;;4.39;66.57
46291;BME280;32023;44.444;26.006;2023-02-01T16:30:01;100267.91;;;4.33;66.51
46291;BME280;32023;44.444;26.006;2023-02-01T16:32:55;100270.84;;;4.31;67.19
46291;BME280;32023;44.444;26.006;2023-02-01T16:35:29;100272.13;;;4.29;67.25